sensor_id;sensor_type;location;lat;lon;timestamp;P1;durP1;ratioP1;P2;durP2;ratioP2
31310;SDS011;17937;51.508;7.534;2022-10-31T00:00:55;15.20;;;7.47;;
31310;SDS011;17937;51.508;7.534;2022-10-31T00:03:21;17.17;;;6.70;;
31310;SDS011;17937;51.508;7.534;2022-10-31T00:05:47;18.58;;;7.50;;
31310;SDS011;17937;51.508;7.534;2022-10-31T00:08:14;23.08;;;7.68;;
31310;SDS011;17937;51.508;7.534;2022-10-31T00:10:41;20.63;;;8.48;;
31310;SDS011;17937;51.508;7.534;2022-10-31T00:13:07;20.95;;;8.48;;
31310;SDS011;17937;51.508;7.534;2022-10-31T00:15:34;18.05;;;8.02;;
31310;SDS011;17937;51.508;7.534;2022-10-31T00:18:00;17.63;;;8.38;;
31310;SDS011;17937;51.508;7.534;2022-10-31T00:20:26;21.42;;;8.40;;
31310;SDS011;17937;51.508;7.534;2022-10-31T00:22:52;19.65;;;8.15;;
31310;SDS011;17937;51.508;7.534;2022-10-31T00:25:18;22.60;;;8.15;;
31310;SDS011;17937;51.508;7.534;2022-10-31T00:27:45;19.50;;;7.95;;
31310;SDS011;17937;51.508;7.534;2022-10-31T00:30:11;16.58;;;7.82;;
31310;SDS011;17937;51.508;7.534;2022-10-31T00:32:36;15.10;;;8.13;;
31310;SDS011;17937;51.508;7.534;2022-10-31T00:35:02;18.70;;;7.90;;
31310;SDS011;17937;51.508;7.534;2022-10-31T00:37:28;17.92;;;8.05;;
31310;SDS011;17937;51.508;7.534;2022-10-31T00:39:53;19.50;;;8.57;;
31310;SDS011;17937;51.508;7.534;2022-10-31T00:42:19;22.52;;;8.35;;
31310;SDS011;17937;51.508;7.534;2022-10-31T00:44:44;17.80;;;8.18;;
31310;SDS011;17937;51.508;7.534;2022-10-31T00:47:10;20.83;;;7.85;;
31310;SDS011;17937;51.508;7.534;2022-10-31T00:49:35;20.30;;;8.35;;
31310;SDS011;17937;51.508;7.534;2022-10-31T00:52:01;19.80;;;8.48;;
31310;SDS011;17937;51.508;7.534;2022-10-31T00:54:26;22.42;;;8.50;;
31310;SDS011;17937;51.508;7.534;2022-10-31T00:56:52;17.80;;;10.30;;
31310;SDS011;17937;51.508;7.534;2022-10-31T00:59:17;29.65;;;11.10;;
31310;SDS011;17937;51.508;7.534;2022-10-31T01:01:43;28.17;;;12.20;;
31310;SDS011;17937;51.508;7.534;2022-10-31T01:04:08;24.38;;;9.52;;
31310;SDS011;17937;51.508;7.534;2022-10-31T01:06:34;28.30;;;9.13;;
31310;SDS011;17937;51.508;7.534;2022-10-31T01:08:59;19.15;;;9.20;;
31310;SDS011;17937;51.508;7.534;2022-10-31T01:11:25;21.17;;;8.27;;
31310;SDS011;17937;51.508;7.534;2022-10-31T01:13:52;20.08;;;8.52;;
31310;SDS011;17937;51.508;7.534;2022-10-31T01:16:19;19.45;;;8.82;;
31310;SDS011;17937;51.508;7.534;2022-10-31T01:18:46;17.10;;;8.30;;
31310;SDS011;17937;51.508;7.534;2022-10-31T01:21:14;18.02;;;8.65;;
31310;SDS011;17937;51.508;7.534;2022-10-31T01:23:42;23.38;;;8.95;;
31310;SDS011;17937;51.508;7.534;2022-10-31T01:26:15;19.75;;;9.00;;
31310;SDS011;17937;51.508;7.534;2022-10-31T01:31:20;23.27;;;7.90;;
31310;SDS011;17937;51.508;7.534;2022-10-31T01:33:47;22.92;;;8.48;;
31310;SDS011;17937;51.508;7.534;2022-10-31T01:36:18;24.08;;;9.60;;
31310;SDS011;17937;51.508;7.534;2022-10-31T01:38:44;20.88;;;8.98;;
31310;SDS011;17937;51.508;7.534;2022-10-31T01:41:11;16.73;;;8.60;;
31310;SDS011;17937;51.508;7.534;2022-10-31T01:43:57;22.42;;;9.30;;
31310;SDS011;17937;51.508;7.534;2022-10-31T01:46:31;21.73;;;8.68;;
31310;SDS011;17937;51.508;7.534;2022-10-31T01:49:03;19.08;;;8.35;;
31310;SDS011;17937;51.508;7.534;2022-10-31T01:51:34;15.73;;;8.57;;
31310;SDS011;17937;51.508;7.534;2022-10-31T01:54:04;22.60;;;8.88;;
31310;SDS011;17937;51.508;7.534;2022-10-31T01:56:33;22.85;;;8.98;;
31310;SDS011;17937;51.508;7.534;2022-10-31T01:59:03;24.73;;;9.10;;
31310;SDS011;17937;51.508;7.534;2022-10-31T02:01:32;18.73;;;9.77;;
31310;SDS011;17937;51.508;7.534;2022-10-31T02:03:57;22.13;;;10.50;;
31310;SDS011;17937;51.508;7.534;2022-10-31T02:06:30;30.88;;;11.32;;
31310;SDS011;17937;51.508;7.534;2022-10-31T02:09:10;25.65;;;10.82;;
31310;SDS011;17937;51.508;7.534;2022-10-31T02:11:38;25.20;;;11.15;;
31310;SDS011;17937;51.508;7.534;2022-10-31T02:14:05;22.88;;;11.32;;
31310;SDS011;17937;51.508;7.534;2022-10-31T02:16:30;31.33;;;11.93;;
31310;SDS011;17937;51.508;7.534;2022-10-31T02:18:56;22.98;;;11.40;;
31310;SDS011;17937;51.508;7.534;2022-10-31T02:27:00;21.77;;;9.73;;
31310;SDS011;17937;51.508;7.534;2022-10-31T02:29:59;28.17;;;10.43;;
31310;SDS011;17937;51.508;7.534;2022-10-31T02:37:37;27.83;;;10.55;;
31310;SDS011;17937;51.508;7.534;2022-10-31T02:42:59;20.15;;;10.02;;
31310;SDS011;17937;51.508;7.534;2022-10-31T02:48:20;17.98;;;9.70;;
31310;SDS011;17937;51.508;7.534;2022-10-31T02:50:58;24.00;;;10.47;;
31310;SDS011;17937;51.508;7.534;2022-10-31T02:53:25;20.25;;;10.07;;
31310;SDS011;17937;51.508;7.534;2022-10-31T02:55:56;22.63;;;9.52;;
31310;SDS011;17937;51.508;7.534;2022-10-31T02:58:30;21.73;;;9.82;;
31310;SDS011;17937;51.508;7.534;2022-10-31T03:03:57;19.17;;;9.75;;
31310;SDS011;17937;51.508;7.534;2022-10-31T03:12:28;17.70;;;9.10;;
31310;SDS011;17937;51.508;7.534;2022-10-31T03:17:57;19.83;;;9.10;;
31310;SDS011;17937;51.508;7.534;2022-10-31T03:20:55;23.60;;;10.23;;
31310;SDS011;17937;51.508;7.534;2022-10-31T03:23:26;22.45;;;9.65;;
31310;SDS011;17937;51.508;7.534;2022-10-31T03:25:53;17.42;;;9.15;;
31310;SDS011;17937;51.508;7.534;2022-10-31T03:28:22;21.92;;;9.63;;
31310;SDS011;17937;51.508;7.534;2022-10-31T03:30:52;23.05;;;10.32;;
31310;SDS011;17937;51.508;7.534;2022-10-31T03:33:21;26.92;;;10.77;;
31310;SDS011;17937;51.508;7.534;2022-10-31T03:35:52;20.67;;;9.35;;
31310;SDS011;17937;51.508;7.534;2022-10-31T03:38:20;24.27;;;9.57;;
31310;SDS011;17937;51.508;7.534;2022-10-31T03:40:47;25.40;;;10.23;;
31310;SDS011;17937;51.508;7.534;2022-10-31T03:43:16;24.90;;;9.70;;
31310;SDS011;17937;51.508;7.534;2022-10-31T03:45:45;23.13;;;9.73;;
31310;SDS011;17937;51.508;7.534;2022-10-31T03:48:16;26.15;;;9.75;;
31310;SDS011;17937;51.508;7.534;2022-10-31T03:51:02;24.10;;;9.52;;
31310;SDS011;17937;51.508;7.534;2022-10-31T03:53:34;18.90;;;9.05;;
31310;SDS011;17937;51.508;7.534;2022-10-31T03:56:22;17.20;;;8.73;;
31310;SDS011;17937;51.508;7.534;2022-10-31T04:01:28;18.52;;;8.45;;
31310;SDS011;17937;51.508;7.534;2022-10-31T04:03:56;22.52;;;9.15;;
31310;SDS011;17937;51.508;7.534;2022-10-31T04:06:22;21.02;;;9.52;;
31310;SDS011;17937;51.508;7.534;2022-10-31T04:09:00;24.08;;;9.55;;
31310;SDS011;17937;51.508;7.534;2022-10-31T04:11:29;20.27;;;9.07;;
31310;SDS011;17937;51.508;7.534;2022-10-31T04:14:00;19.93;;;9.27;;
31310;SDS011;17937;51.508;7.534;2022-10-31T04:16:27;20.15;;;9.50;;
31310;SDS011;17937;51.508;7.534;2022-10-31T04:18:53;25.35;;;9.30;;
31310;SDS011;17937;51.508;7.534;2022-10-31T04:21:19;22.92;;;9.48;;
31310;SDS011;17937;51.508;7.534;2022-10-31T04:23:51;14.97;;;8.90;;
31310;SDS011;17937;51.508;7.534;2022-10-31T04:26:16;21.90;;;10.10;;
31310;SDS011;17937;51.508;7.534;2022-10-31T04:28:42;22.13;;;9.77;;
31310;SDS011;17937;51.508;7.534;2022-10-31T04:31:08;21.55;;;9.27;;
31310;SDS011;17937;51.508;7.534;2022-10-31T04:33:36;23.15;;;9.35;;
31310;SDS011;17937;51.508;7.534;2022-10-31T04:36:01;17.40;;;8.57;;
31310;SDS011;17937;51.508;7.534;2022-10-31T04:38:27;23.73;;;9.35;;
31310;SDS011;17937;51.508;7.534;2022-10-31T04:40:52;21.20;;;9.32;;
31310;SDS011;17937;51.508;7.534;2022-10-31T04:43:18;17.65;;;8.93;;
31310;SDS011;17937;51.508;7.534;2022-10-31T04:45:44;16.90;;;8.15;;
31310;SDS011;17937;51.508;7.534;2022-10-31T04:48:09;13.57;;;8.40;;
31310;SDS011;17937;51.508;7.534;2022-10-31T04:50:35;23.58;;;9.75;;
31310;SDS011;17937;51.508;7.534;2022-10-31T04:53:00;21.25;;;9.13;;
31310;SDS011;17937;51.508;7.534;2022-10-31T04:55:26;19.10;;;8.63;;
31310;SDS011;17937;51.508;7.534;2022-10-31T04:57:51;27.35;;;9.65;;
31310;SDS011;17937;51.508;7.534;2022-10-31T05:00:19;26.80;;;9.80;;
31310;SDS011;17937;51.508;7.534;2022-10-31T05:02:55;28.70;;;10.10;;
31310;SDS011;17937;51.508;7.534;2022-10-31T05:05:23;20.38;;;10.05;;
31310;SDS011;17937;51.508;7.534;2022-10-31T05:07:50;25.10;;;9.93;;
31310;SDS011;17937;51.508;7.534;2022-10-31T05:10:18;20.48;;;8.95;;
31310;SDS011;17937;51.508;7.534;2022-10-31T05:12:46;33.15;;;10.45;;
31310;SDS011;17937;51.508;7.534;2022-10-31T05:15:13;25.63;;;10.07;;
31310;SDS011;17937;51.508;7.534;2022-10-31T05:17:39;24.30;;;9.73;;
31310;SDS011;17937;51.508;7.534;2022-10-31T05:20:05;24.73;;;9.45;;
31310;SDS011;17937;51.508;7.534;2022-10-31T05:22:31;24.38;;;10.18;;
31310;SDS011;17937;51.508;7.534;2022-10-31T05:24:56;23.90;;;10.18;;
31310;SDS011;17937;51.508;7.534;2022-10-31T05:27:22;22.45;;;10.23;;
31310;SDS011;17937;51.508;7.534;2022-10-31T05:29:47;20.48;;;10.20;;
31310;SDS011;17937;51.508;7.534;2022-10-31T05:32:13;26.38;;;10.98;;
31310;SDS011;17937;51.508;7.534;2022-10-31T05:34:39;23.42;;;10.70;;
31310;SDS011;17937;51.508;7.534;2022-10-31T05:37:04;22.00;;;10.95;;
31310;SDS011;17937;51.508;7.534;2022-10-31T05:39:30;26.27;;;11.93;;
31310;SDS011;17937;51.508;7.534;2022-10-31T05:41:55;24.98;;;10.65;;
31310;SDS011;17937;51.508;7.534;2022-10-31T05:44:21;28.67;;;11.85;;
31310;SDS011;17937;51.508;7.534;2022-10-31T05:46:46;26.65;;;11.45;;
31310;SDS011;17937;51.508;7.534;2022-10-31T05:49:12;28.25;;;12.27;;
31310;SDS011;17937;51.508;7.534;2022-10-31T05:51:38;26.95;;;11.77;;
31310;SDS011;17937;51.508;7.534;2022-10-31T05:54:03;23.67;;;12.02;;
31310;SDS011;17937;51.508;7.534;2022-10-31T05:56:29;31.08;;;13.30;;
31310;SDS011;17937;51.508;7.534;2022-10-31T05:58:55;40.10;;;12.95;;
31310;SDS011;17937;51.508;7.534;2022-10-31T06:01:20;27.00;;;12.57;;
31310;SDS011;17937;51.508;7.534;2022-10-31T06:03:46;29.10;;;11.65;;
31310;SDS011;17937;51.508;7.534;2022-10-31T06:06:11;28.38;;;13.30;;
31310;SDS011;17937;51.508;7.534;2022-10-31T06:08:37;26.70;;;12.25;;
31310;SDS011;17937;51.508;7.534;2022-10-31T06:11:03;30.77;;;12.60;;
31310;SDS011;17937;51.508;7.534;2022-10-31T06:13:28;27.05;;;13.35;;
31310;SDS011;17937;51.508;7.534;2022-10-31T06:15:54;27.73;;;13.07;;
31310;SDS011;17937;51.508;7.534;2022-10-31T06:18:20;26.75;;;12.25;;
31310;SDS011;17937;51.508;7.534;2022-10-31T06:20:45;27.52;;;12.25;;
31310;SDS011;17937;51.508;7.534;2022-10-31T06:23:11;28.63;;;12.75;;
31310;SDS011;17937;51.508;7.534;2022-10-31T06:25:36;31.13;;;13.45;;
31310;SDS011;17937;51.508;7.534;2022-10-31T06:28:02;26.67;;;12.13;;
31310;SDS011;17937;51.508;7.534;2022-10-31T06:30:27;25.33;;;13.60;;
31310;SDS011;17937;51.508;7.534;2022-10-31T06:32:53;33.20;;;14.55;;
31310;SDS011;17937;51.508;7.534;2022-10-31T06:35:19;35.03;;;14.38;;
31310;SDS011;17937;51.508;7.534;2022-10-31T06:37:54;30.48;;;14.65;;
31310;SDS011;17937;51.508;7.534;2022-10-31T06:40:19;33.17;;;13.50;;
31310;SDS011;17937;51.508;7.534;2022-10-31T06:42:45;32.85;;;14.15;;
31310;SDS011;17937;51.508;7.534;2022-10-31T06:45:11;29.65;;;14.00;;
31310;SDS011;17937;51.508;7.534;2022-10-31T06:47:36;32.53;;;13.50;;
31310;SDS011;17937;51.508;7.534;2022-10-31T06:50:02;32.38;;;14.40;;
31310;SDS011;17937;51.508;7.534;2022-10-31T06:52:28;35.80;;;14.50;;
31310;SDS011;17937;51.508;7.534;2022-10-31T06:54:53;30.23;;;13.95;;
31310;SDS011;17937;51.508;7.534;2022-10-31T06:57:19;31.02;;;14.85;;
31310;SDS011;17937;51.508;7.534;2022-10-31T06:59:44;29.92;;;14.30;;
31310;SDS011;17937;51.508;7.534;2022-10-31T07:02:10;31.67;;;14.15;;
31310;SDS011;17937;51.508;7.534;2022-10-31T07:04:36;27.88;;;13.18;;
31310;SDS011;17937;51.508;7.534;2022-10-31T07:07:02;33.90;;;14.55;;
31310;SDS011;17937;51.508;7.534;2022-10-31T07:09:27;36.25;;;13.95;;
31310;SDS011;17937;51.508;7.534;2022-10-31T07:11:53;28.27;;;13.75;;
31310;SDS011;17937;51.508;7.534;2022-10-31T07:14:18;26.92;;;13.43;;
31310;SDS011;17937;51.508;7.534;2022-10-31T07:16:47;37.13;;;13.88;;
31310;SDS011;17937;51.508;7.534;2022-10-31T07:19:15;29.50;;;13.23;;
31310;SDS011;17937;51.508;7.534;2022-10-31T07:21:40;29.23;;;13.27;;
31310;SDS011;17937;51.508;7.534;2022-10-31T07:24:06;31.02;;;13.65;;
31310;SDS011;17937;51.508;7.534;2022-10-31T07:26:31;35.35;;;14.35;;
31310;SDS011;17937;51.508;7.534;2022-10-31T07:28:57;30.00;;;13.30;;
31310;SDS011;17937;51.508;7.534;2022-10-31T07:31:24;28.20;;;13.68;;
31310;SDS011;17937;51.508;7.534;2022-10-31T07:33:50;31.92;;;12.85;;
31310;SDS011;17937;51.508;7.534;2022-10-31T07:36:15;34.55;;;12.77;;
31310;SDS011;17937;51.508;7.534;2022-10-31T07:38:41;25.63;;;11.73;;
31310;SDS011;17937;51.508;7.534;2022-10-31T07:41:07;26.98;;;11.48;;
31310;SDS011;17937;51.508;7.534;2022-10-31T07:43:32;35.67;;;12.07;;
31310;SDS011;17937;51.508;7.534;2022-10-31T07:45:58;31.05;;;12.65;;
31310;SDS011;17937;51.508;7.534;2022-10-31T07:48:23;26.92;;;12.85;;
31310;SDS011;17937;51.508;7.534;2022-10-31T07:50:49;33.97;;;12.18;;
31310;SDS011;17937;51.508;7.534;2022-10-31T07:53:14;27.50;;;11.07;;
31310;SDS011;17937;51.508;7.534;2022-10-31T07:55:41;27.95;;;12.05;;
31310;SDS011;17937;51.508;7.534;2022-10-31T07:58:14;26.70;;;11.93;;
31310;SDS011;17937;51.508;7.534;2022-10-31T08:00:41;32.70;;;12.27;;
31310;SDS011;17937;51.508;7.534;2022-10-31T08:03:09;32.97;;;12.45;;
31310;SDS011;17937;51.508;7.534;2022-10-31T08:05:36;27.83;;;11.95;;
31310;SDS011;17937;51.508;7.534;2022-10-31T08:08:03;25.70;;;12.40;;
31310;SDS011;17937;51.508;7.534;2022-10-31T08:10:29;30.70;;;13.07;;
31310;SDS011;17937;51.508;7.534;2022-10-31T08:12:58;24.92;;;12.50;;
31310;SDS011;17937;51.508;7.534;2022-10-31T08:15:29;26.35;;;11.77;;
31310;SDS011;17937;51.508;7.534;2022-10-31T08:17:55;28.50;;;11.95;;
31310;SDS011;17937;51.508;7.534;2022-10-31T08:20:21;30.58;;;12.25;;
31310;SDS011;17937;51.508;7.534;2022-10-31T08:22:53;27.20;;;11.82;;
31310;SDS011;17937;51.508;7.534;2022-10-31T08:25:19;27.38;;;11.82;;
31310;SDS011;17937;51.508;7.534;2022-10-31T08:27:48;31.05;;;12.73;;
31310;SDS011;17937;51.508;7.534;2022-10-31T08:30:19;25.55;;;12.23;;
31310;SDS011;17937;51.508;7.534;2022-10-31T08:32:45;24.40;;;11.93;;
31310;SDS011;17937;51.508;7.534;2022-10-31T08:35:11;28.27;;;13.27;;
31310;SDS011;17937;51.508;7.534;2022-10-31T08:37:37;29.73;;;12.88;;
31310;SDS011;17937;51.508;7.534;2022-10-31T08:40:03;30.73;;;12.65;;
31310;SDS011;17937;51.508;7.534;2022-10-31T08:42:29;26.45;;;11.80;;
31310;SDS011;17937;51.508;7.534;2022-10-31T08:44:55;33.28;;;12.30;;
31310;SDS011;17937;51.508;7.534;2022-10-31T08:47:20;30.88;;;13.55;;
31310;SDS011;17937;51.508;7.534;2022-10-31T08:49:46;30.92;;;13.13;;
31310;SDS011;17937;51.508;7.534;2022-10-31T08:52:11;26.73;;;12.13;;
31310;SDS011;17937;51.508;7.534;2022-10-31T08:54:37;26.33;;;12.93;;
31310;SDS011;17937;51.508;7.534;2022-10-31T08:57:03;36.17;;;13.57;;
31310;SDS011;17937;51.508;7.534;2022-10-31T08:59:28;28.25;;;12.77;;
31310;SDS011;17937;51.508;7.534;2022-10-31T09:01:54;33.17;;;13.07;;
31310;SDS011;17937;51.508;7.534;2022-10-31T09:04:19;32.50;;;13.45;;
31310;SDS011;17937;51.508;7.534;2022-10-31T09:06:45;25.63;;;13.38;;
31310;SDS011;17937;51.508;7.534;2022-10-31T09:09:10;29.08;;;12.93;;
31310;SDS011;17937;51.508;7.534;2022-10-31T09:11:36;31.52;;;13.30;;
31310;SDS011;17937;51.508;7.534;2022-10-31T09:14:01;35.28;;;13.95;;
31310;SDS011;17937;51.508;7.534;2022-10-31T09:16:27;28.73;;;13.38;;
31310;SDS011;17937;51.508;7.534;2022-10-31T09:18:52;41.85;;;14.52;;
31310;SDS011;17937;51.508;7.534;2022-10-31T09:21:18;28.23;;;14.23;;
31310;SDS011;17937;51.508;7.534;2022-10-31T09:23:43;36.38;;;14.98;;
31310;SDS011;17937;51.508;7.534;2022-10-31T09:26:09;32.97;;;15.10;;
31310;SDS011;17937;51.508;7.534;2022-10-31T09:28:34;38.50;;;14.43;;
31310;SDS011;17937;51.508;7.534;2022-10-31T09:31:00;28.42;;;14.02;;
31310;SDS011;17937;51.508;7.534;2022-10-31T09:33:26;28.15;;;13.20;;
31310;SDS011;17937;51.508;7.534;2022-10-31T09:35:51;35.00;;;14.73;;
31310;SDS011;17937;51.508;7.534;2022-10-31T09:38:18;40.13;;;14.05;;
31310;SDS011;17937;51.508;7.534;2022-10-31T09:40:46;36.95;;;15.38;;
31310;SDS011;17937;51.508;7.534;2022-10-31T09:51:25;40.08;;;17.05;;
31310;SDS011;17937;51.508;7.534;2022-10-31T09:54:15;34.17;;;16.95;;
31310;SDS011;17937;51.508;7.534;2022-10-31T09:56:51;35.45;;;17.92;;
31310;SDS011;17937;51.508;7.534;2022-10-31T09:59:20;42.17;;;17.75;;
31310;SDS011;17937;51.508;7.534;2022-10-31T10:07:07;35.38;;;17.92;;
31310;SDS011;17937;51.508;7.534;2022-10-31T10:09:42;41.67;;;17.35;;
31310;SDS011;17937;51.508;7.534;2022-10-31T10:14:45;32.15;;;17.00;;
31310;SDS011;17937;51.508;7.534;2022-10-31T10:17:38;45.47;;;17.42;;
31310;SDS011;17937;51.508;7.534;2022-10-31T10:22:52;40.58;;;18.45;;
31310;SDS011;17937;51.508;7.534;2022-10-31T10:25:34;44.75;;;18.77;;
31310;SDS011;17937;51.508;7.534;2022-10-31T10:33:33;40.15;;;18.23;;
31310;SDS011;17937;51.508;7.534;2022-10-31T10:36:14;42.13;;;18.92;;
31310;SDS011;17937;51.508;7.534;2022-10-31T10:38:52;40.75;;;19.02;;
31310;SDS011;17937;51.508;7.534;2022-10-31T10:41:23;48.13;;;18.02;;
31310;SDS011;17937;51.508;7.534;2022-10-31T10:43:52;39.35;;;18.30;;
31310;SDS011;17937;51.508;7.534;2022-10-31T10:49:25;40.13;;;19.17;;
31310;SDS011;17937;51.508;7.534;2022-10-31T10:52:06;43.67;;;18.75;;
31310;SDS011;17937;51.508;7.534;2022-10-31T11:00:23;39.55;;;18.55;;
31310;SDS011;17937;51.508;7.534;2022-10-31T11:02:55;41.13;;;18.33;;
31310;SDS011;17937;51.508;7.534;2022-10-31T11:05:33;34.13;;;17.52;;
31310;SDS011;17937;51.508;7.534;2022-10-31T11:08:04;36.95;;;16.40;;
31310;SDS011;17937;51.508;7.534;2022-10-31T11:10:31;33.35;;;17.13;;
31310;SDS011;17937;51.508;7.534;2022-10-31T11:15:53;35.22;;;17.33;;
31310;SDS011;17937;51.508;7.534;2022-10-31T11:18:36;44.03;;;19.63;;
31310;SDS011;17937;51.508;7.534;2022-10-31T11:21:04;43.65;;;19.13;;
31310;SDS011;17937;51.508;7.534;2022-10-31T11:23:31;44.97;;;18.77;;
31310;SDS011;17937;51.508;7.534;2022-10-31T11:28:28;54.28;;;24.15;;
31310;SDS011;17937;51.508;7.534;2022-10-31T11:30:56;40.38;;;19.33;;
31310;SDS011;17937;51.508;7.534;2022-10-31T11:33:25;44.70;;;20.05;;
31310;SDS011;17937;51.508;7.534;2022-10-31T11:36:01;37.00;;;16.33;;
31310;SDS011;17937;51.508;7.534;2022-10-31T11:38:39;37.55;;;17.35;;
31310;SDS011;17937;51.508;7.534;2022-10-31T11:41:11;35.95;;;15.48;;
31310;SDS011;17937;51.508;7.534;2022-10-31T11:43:40;32.53;;;14.93;;
31310;SDS011;17937;51.508;7.534;2022-10-31T11:46:26;33.55;;;16.40;;
31310;SDS011;17937;51.508;7.534;2022-10-31T11:49:02;30.83;;;14.70;;
31310;SDS011;17937;51.508;7.534;2022-10-31T11:51:30;30.20;;;16.33;;
31310;SDS011;17937;51.508;7.534;2022-10-31T11:53:58;37.42;;;16.58;;
31310;SDS011;17937;51.508;7.534;2022-10-31T11:56:27;37.05;;;16.65;;
31310;SDS011;17937;51.508;7.534;2022-10-31T11:59:03;36.05;;;15.82;;
31310;SDS011;17937;51.508;7.534;2022-10-31T12:01:31;39.13;;;15.88;;
31310;SDS011;17937;51.508;7.534;2022-10-31T12:04:04;41.15;;;15.60;;
31310;SDS011;17937;51.508;7.534;2022-10-31T12:06:38;39.50;;;15.07;;
31310;SDS011;17937;51.508;7.534;2022-10-31T12:17:13;33.33;;;13.15;;
31310;SDS011;17937;51.508;7.534;2022-10-31T12:22:32;29.85;;;14.00;;
31310;SDS011;17937;51.508;7.534;2022-10-31T12:28:04;30.48;;;13.30;;
31310;SDS011;17937;51.508;7.534;2022-10-31T12:31:03;35.55;;;13.23;;
31310;SDS011;17937;51.508;7.534;2022-10-31T12:36:47;34.30;;;14.07;;
31310;SDS011;17937;51.508;7.534;2022-10-31T12:39:24;26.15;;;13.00;;
31310;SDS011;17937;51.508;7.534;2022-10-31T12:47:27;28.95;;;12.25;;
31310;SDS011;17937;51.508;7.534;2022-10-31T12:50:22;29.55;;;11.57;;
31310;SDS011;17937;51.508;7.534;2022-10-31T12:58:12;34.72;;;11.85;;
31310;SDS011;17937;51.508;7.534;2022-10-31T13:00:45;28.17;;;11.70;;
31310;SDS011;17937;51.508;7.534;2022-10-31T13:03:31;30.90;;;11.70;;
31310;SDS011;17937;51.508;7.534;2022-10-31T13:06:05;22.83;;;12.75;;
31310;SDS011;17937;51.508;7.534;2022-10-31T13:08:57;34.63;;;12.80;;
31310;SDS011;17937;51.508;7.534;2022-10-31T13:11:32;30.83;;;12.23;;
31310;SDS011;17937;51.508;7.534;2022-10-31T13:16:52;30.15;;;13.52;;
31310;SDS011;17937;51.508;7.534;2022-10-31T13:27:21;33.63;;;13.05;;
31310;SDS011;17937;51.508;7.534;2022-10-31T13:32:41;32.03;;;13.90;;
31310;SDS011;17937;51.508;7.534;2022-10-31T13:35:38;30.73;;;13.07;;
31310;SDS011;17937;51.508;7.534;2022-10-31T13:41:13;35.40;;;12.52;;
31310;SDS011;17937;51.508;7.534;2022-10-31T13:46:34;26.88;;;11.30;;
31310;SDS011;17937;51.508;7.534;2022-10-31T13:49:02;29.35;;;12.20;;
31310;SDS011;17937;51.508;7.534;2022-10-31T13:51:30;31.70;;;12.13;;
31310;SDS011;17937;51.508;7.534;2022-10-31T13:53:58;33.25;;;13.05;;
31310;SDS011;17937;51.508;7.534;2022-10-31T13:56:43;29.17;;;11.98;;
31310;SDS011;17937;51.508;7.534;2022-10-31T13:59:19;25.63;;;10.93;;
31310;SDS011;17937;51.508;7.534;2022-10-31T14:01:47;26.38;;;11.13;;
31310;SDS011;17937;51.508;7.534;2022-10-31T14:07:14;24.58;;;10.20;;
31310;SDS011;17937;51.508;7.534;2022-10-31T14:12:29;18.85;;;9.50;;
31310;SDS011;17937;51.508;7.534;2022-10-31T14:15:14;25.13;;;8.98;;
31310;SDS011;17937;51.508;7.534;2022-10-31T14:22:39;22.15;;;8.38;;
31310;SDS011;17937;51.508;7.534;2022-10-31T14:27:49;20.55;;;9.00;;
31310;SDS011;17937;51.508;7.534;2022-10-31T14:30:17;38.55;;;12.43;;
31310;SDS011;17937;51.508;7.534;2022-10-31T14:32:49;26.77;;;8.75;;
31310;SDS011;17937;51.508;7.534;2022-10-31T14:35:16;22.05;;;8.13;;
31310;SDS011;17937;51.508;7.534;2022-10-31T14:51:41;27.60;;;10.18;;
31310;SDS011;17937;51.508;7.534;2022-10-31T14:54:25;26.75;;;9.10;;
31310;SDS011;17937;51.508;7.534;2022-10-31T14:56:57;24.40;;;9.23;;
31310;SDS011;17937;51.508;7.534;2022-10-31T14:59:30;24.15;;;8.88;;
31310;SDS011;17937;51.508;7.534;2022-10-31T15:01:59;23.58;;;7.97;;
31310;SDS011;17937;51.508;7.534;2022-10-31T15:04:34;19.10;;;7.43;;
31310;SDS011;17937;51.508;7.534;2022-10-31T15:09:33;32.30;;;8.93;;
31310;SDS011;17937;51.508;7.534;2022-10-31T15:12:00;26.30;;;10.93;;
31310;SDS011;17937;51.508;7.534;2022-10-31T15:14:41;24.55;;;9.05;;
31310;SDS011;17937;51.508;7.534;2022-10-31T15:17:08;29.13;;;10.27;;
31310;SDS011;17937;51.508;7.534;2022-10-31T15:19:36;21.40;;;8.30;;
31310;SDS011;17937;51.508;7.534;2022-10-31T15:22:02;19.90;;;7.68;;
31310;SDS011;17937;51.508;7.534;2022-10-31T15:24:35;20.48;;;8.52;;
31310;SDS011;17937;51.508;7.534;2022-10-31T15:27:03;23.95;;;9.30;;
31310;SDS011;17937;51.508;7.534;2022-10-31T15:29:29;18.25;;;8.45;;
31310;SDS011;17937;51.508;7.534;2022-10-31T15:31:59;22.95;;;9.48;;
31310;SDS011;17937;51.508;7.534;2022-10-31T15:34:37;19.95;;;9.55;;
31310;SDS011;17937;51.508;7.534;2022-10-31T15:37:07;22.42;;;9.05;;
31310;SDS011;17937;51.508;7.534;2022-10-31T15:39:46;26.23;;;10.55;;
31310;SDS011;17937;51.508;7.534;2022-10-31T15:42:35;26.60;;;10.82;;
31310;SDS011;17937;51.508;7.534;2022-10-31T15:47:48;35.10;;;12.45;;
31310;SDS011;17937;51.508;7.534;2022-10-31T15:50:24;30.75;;;12.45;;
31310;SDS011;17937;51.508;7.534;2022-10-31T15:53:02;28.08;;;12.32;;
31310;SDS011;17937;51.508;7.534;2022-10-31T15:55:31;29.33;;;13.23;;
31310;SDS011;17937;51.508;7.534;2022-10-31T15:58:02;29.10;;;14.48;;
31310;SDS011;17937;51.508;7.534;2022-10-31T16:00:35;28.25;;;12.52;;
31310;SDS011;17937;51.508;7.534;2022-10-31T16:05:47;33.60;;;13.88;;
31310;SDS011;17937;51.508;7.534;2022-10-31T16:10:56;33.67;;;14.90;;
31310;SDS011;17937;51.508;7.534;2022-10-31T16:13:31;39.40;;;17.40;;
31310;SDS011;17937;51.508;7.534;2022-10-31T16:16:02;37.42;;;15.52;;
31310;SDS011;17937;51.508;7.534;2022-10-31T16:18:36;31.83;;;15.05;;
31310;SDS011;17937;51.508;7.534;2022-10-31T16:21:04;33.15;;;15.45;;
31310;SDS011;17937;51.508;7.534;2022-10-31T16:23:31;31.48;;;16.08;;
31310;SDS011;17937;51.508;7.534;2022-10-31T16:25:56;34.00;;;14.70;;
31310;SDS011;17937;51.508;7.534;2022-10-31T16:28:26;33.47;;;14.13;;
31310;SDS011;17937;51.508;7.534;2022-10-31T16:30:53;32.13;;;13.77;;
31310;SDS011;17937;51.508;7.534;2022-10-31T16:33:27;27.85;;;12.57;;
31310;SDS011;17937;51.508;7.534;2022-10-31T16:35:54;22.75;;;11.98;;
31310;SDS011;17937;51.508;7.534;2022-10-31T16:38:20;26.13;;;11.52;;
31310;SDS011;17937;51.508;7.534;2022-10-31T16:40:47;27.60;;;10.48;;
31310;SDS011;17937;51.508;7.534;2022-10-31T16:43:14;25.88;;;11.32;;
31310;SDS011;17937;51.508;7.534;2022-10-31T16:45:44;32.25;;;16.65;;
31310;SDS011;17937;51.508;7.534;2022-10-31T16:48:12;23.88;;;10.13;;
31310;SDS011;17937;51.508;7.534;2022-10-31T16:50:46;23.27;;;11.18;;
31310;SDS011;17937;51.508;7.534;2022-10-31T16:53:13;30.23;;;14.75;;
31310;SDS011;17937;51.508;7.534;2022-10-31T16:55:44;27.40;;;12.60;;
31310;SDS011;17937;51.508;7.534;2022-10-31T16:58:19;24.08;;;13.48;;
31310;SDS011;17937;51.508;7.534;2022-10-31T17:00:50;35.45;;;14.23;;
31310;SDS011;17937;51.508;7.534;2022-10-31T17:03:17;25.55;;;12.60;;
31310;SDS011;17937;51.508;7.534;2022-10-31T17:05:43;21.30;;;12.25;;
31310;SDS011;17937;51.508;7.534;2022-10-31T17:08:08;18.92;;;7.03;;
31310;SDS011;17937;51.508;7.534;2022-10-31T17:10:34;15.88;;;6.72;;
31310;SDS011;17937;51.508;7.534;2022-10-31T17:13:01;32.67;;;15.82;;
31310;SDS011;17937;51.508;7.534;2022-10-31T17:15:28;31.20;;;11.20;;